createdAt,value
2017-04-04T00:00:46.829Z,1016.69
2017-04-04T00:01:46.810Z,1016.64
2017-04-04T00:02:46.793Z,1016.66
2017-04-04T00:03:46.774Z,1016.64
2017-04-04T00:04:46.756Z,1016.62
2017-04-04T00:05:46.738Z,1016.62
2017-04-04T00:06:46.723Z,1016.57
2017-04-04T00:07:46.709Z,1016.58
2017-04-04T00:08:46.686Z,1016.56
2017-04-04T00:09:46.671Z,1016.58
2017-04-04T00:10:46.653Z,1016.55
2017-04-04T00:11:46.634Z,1016.54
2017-04-04T00:12:46.618Z,1016.55
2017-04-04T00:13:46.599Z,1016.53
2017-04-04T00:14:46.586Z,1016.51
2017-04-04T00:15:46.566Z,1016.52
2017-04-04T00:16:46.548Z,1016.49
2017-04-04T00:17:46.530Z,1016.47
2017-04-04T00:18:46.514Z,1016.48
2017-04-04T00:19:46.496Z,1016.49
2017-04-04T00:20:46.478Z,1016.46
2017-04-04T00:21:46.460Z,1016.47
2017-04-04T00:22:46.443Z,1016.44
2017-04-04T00:23:46.476Z,1016.48
2017-04-04T00:24:46.409Z,1016.43
2017-04-04T00:25:46.391Z,1016.43
2017-04-04T00:26:46.375Z,1016.38
2017-04-04T00:27:46.356Z,1016.41
2017-04-04T00:28:46.339Z,1016.36
2017-04-04T00:29:46.321Z,1016.36
2017-04-04T00:30:46.305Z,1016.39
2017-04-04T00:31:46.285Z,1016.36
2017-04-04T00:32:46.268Z,1016.38
2017-04-04T00:33:46.252Z,1016.39
2017-04-04T00:34:46.231Z,1016.39
2017-04-04T00:35:46.216Z,1016.37
2017-04-04T00:36:46.198Z,1016.37
2017-04-04T00:37:46.181Z,1016.37
2017-04-04T00:38:46.161Z,1016.41
2017-04-04T00:39:46.145Z,1016.4
2017-04-04T00:40:46.127Z,1016.36
2017-04-04T00:41:46.110Z,1016.38
2017-04-04T00:42:46.091Z,1016.34
2017-04-04T00:43:46.073Z,1016.38
2017-04-04T00:44:46.057Z,1016.38
2017-04-04T00:45:46.040Z,1016.35
2017-04-04T00:46:46.222Z,1016.4
2017-04-04T00:47:46.003Z,1016.36
2017-04-04T00:48:45.987Z,1016.36
2017-04-04T00:49:45.969Z,1016.34
2017-04-04T00:50:45.950Z,1016.35
2017-04-04T00:51:45.935Z,1016.32
2017-04-04T00:52:45.916Z,1016.34
2017-04-04T00:53:45.897Z,1016.3
2017-04-04T00:54:45.880Z,1016.31
2017-04-04T00:55:45.863Z,1016.33
2017-04-04T00:56:45.845Z,1016.27
2017-04-04T00:57:45.825Z,1016.26
2017-04-04T00:58:45.806Z,1016.26
2017-04-04T00:59:45.790Z,1016.28
2017-04-04T01:00:45.771Z,1016.28
2017-04-04T01:01:45.753Z,1016.26
2017-04-04T01:02:45.737Z,1016.26
2017-04-04T01:03:45.717Z,1016.22
2017-04-04T01:04:45.700Z,1016.19
2017-04-04T01:05:45.682Z,1016.25
2017-04-04T01:06:45.665Z,1016.2
2017-04-04T01:07:45.647Z,1016.17
2017-04-04T01:08:45.627Z,1016.14
2017-04-04T01:09:45.613Z,1016.14
2017-04-04T01:10:45.596Z,1016.14
2017-04-04T01:11:45.574Z,1016.12
2017-04-04T01:12:45.558Z,1016.12
2017-04-04T01:13:45.540Z,1016.1
2017-04-04T01:14:45.520Z,1016.13
2017-04-04T01:15:45.505Z,1016.13
2017-04-04T01:16:45.486Z,1016.11
2017-04-04T01:17:45.467Z,1016.1
2017-04-04T01:18:45.449Z,1016.1
2017-04-04T01:19:45.430Z,1016.12
2017-04-04T01:20:45.415Z,1016.15
2017-04-04T01:21:45.396Z,1016.13
2017-04-04T01:22:45.378Z,1016.13
2017-04-04T01:23:45.359Z,1016.14
2017-04-04T01:24:45.341Z,1016.17
2017-04-04T01:25:45.323Z,1016.17
2017-04-04T01:26:45.306Z,1016.17
2017-04-04T01:27:45.286Z,1016.13
2017-04-04T01:28:45.271Z,1016.13
2017-04-04T01:29:45.250Z,1016.1
2017-04-04T01:30:45.234Z,1016.1
2017-04-04T01:31:45.216Z,1016.09
2017-04-04T01:32:45.195Z,1016.07
2017-04-04T01:33:45.177Z,1016.06
2017-04-04T01:34:45.159Z,1016.07
2017-04-04T01:35:45.141Z,1016.03
2017-04-04T01:36:45.124Z,1016.06
2017-04-04T01:37:45.105Z,1016.05
2017-04-04T01:38:45.088Z,1016.03
2017-04-04T01:39:45.067Z,1016.01
2017-04-04T01:40:45.050Z,1016
2017-04-04T01:41:45.031Z,1016.03
2017-04-04T01:42:45.014Z,1016.02
2017-04-04T01:43:44.994Z,1016.02
2017-04-04T01:44:44.975Z,1015.98
2017-04-04T01:45:44.958Z,1016.01
2017-04-04T01:46:44.940Z,1016
2017-04-04T01:47:44.920Z,1016.02
2017-04-04T01:48:44.902Z,1015.97
2017-04-04T01:49:44.884Z,1015.99
2017-04-04T01:50:44.867Z,1015.96
2017-04-04T01:51:44.846Z,1015.94
2017-04-04T01:52:44.828Z,1015.96
2017-04-04T01:53:44.809Z,1015.96
2017-04-04T01:54:44.791Z,1015.96
2017-04-04T01:55:44.773Z,1015.98
2017-04-04T01:56:44.755Z,1015.94
2017-04-04T01:57:44.736Z,1015.94
2017-04-04T01:58:44.718Z,1015.95
2017-04-04T01:59:44.699Z,1015.94
2017-04-04T02:00:44.680Z,1015.91
2017-04-04T02:01:44.664Z,1015.94
2017-04-04T02:02:44.643Z,1015.92
2017-04-04T02:03:44.625Z,1015.92
2017-04-04T02:04:44.606Z,1015.89
2017-04-04T02:05:44.588Z,1015.89
2017-04-04T02:06:44.575Z,1015.88
2017-04-04T02:07:44.582Z,1015.88
2017-04-04T02:08:44.533Z,1015.89
2017-04-04T02:09:44.511Z,1015.86
2017-04-04T02:10:44.493Z,1015.91
2017-04-04T02:11:44.476Z,1015.95
2017-04-04T02:12:44.456Z,1015.94
2017-04-04T02:13:44.440Z,1015.92
2017-04-04T02:14:44.469Z,1015.9
2017-04-04T02:15:44.402Z,1015.93
2017-04-04T02:16:44.382Z,1015.94
2017-04-04T02:17:44.362Z,1015.85
2017-04-04T02:18:44.356Z,1015.91
2017-04-04T02:19:44.328Z,1015.87
2017-04-04T02:20:44.305Z,1015.83
2017-04-04T02:21:44.288Z,1015.84
2017-04-04T02:22:44.269Z,1015.81
2017-04-04T02:23:44.252Z,1015.79
2017-04-04T02:24:44.233Z,1015.82
2017-04-04T02:25:44.215Z,1015.79
2017-04-04T02:26:44.195Z,1015.77
2017-04-04T02:27:44.175Z,1015.78
2017-04-04T02:28:44.156Z,1015.83
2017-04-04T02:29:44.140Z,1015.79
2017-04-04T02:30:44.121Z,1015.82
2017-04-04T02:31:44.102Z,1015.8
2017-04-04T02:32:44.082Z,1015.82
2017-04-04T02:33:44.065Z,1015.83
2017-04-04T02:34:44.046Z,1015.85
2017-04-04T02:35:44.025Z,1015.83
2017-04-04T02:36:44.009Z,1015.88
2017-04-04T02:37:43.989Z,1015.84
2017-04-04T02:38:43.969Z,1015.88
2017-04-04T02:39:43.951Z,1015.83
2017-04-04T02:40:43.932Z,1015.85
2017-04-04T02:41:43.913Z,1015.85
2017-04-04T02:42:43.894Z,1015.84
2017-04-04T02:43:43.875Z,1015.81
2017-04-04T02:44:43.858Z,1015.85
2017-04-04T02:45:43.839Z,1015.87
2017-04-04T02:46:44.023Z,1015.89
2017-04-04T02:47:43.802Z,1015.86
2017-04-04T02:48:43.782Z,1015.87
2017-04-04T02:49:43.764Z,1015.88
2017-04-04T02:50:43.743Z,1015.83
2017-04-04T02:51:43.725Z,1015.79
2017-04-04T02:52:43.708Z,1015.8
2017-04-04T02:53:43.687Z,1015.78
2017-04-04T02:54:43.668Z,1015.79
2017-04-04T02:55:43.649Z,1015.79
2017-04-04T02:56:43.634Z,1015.76
2017-04-04T02:57:43.613Z,1015.76
2017-04-04T02:58:43.596Z,1015.77
2017-04-04T02:59:43.575Z,1015.73
2017-04-04T03:00:43.555Z,1015.73
2017-04-04T03:01:43.538Z,1015.75
2017-04-04T03:02:43.518Z,1015.75
2017-04-04T03:03:43.499Z,1015.73
2017-04-04T03:04:43.480Z,1015.71
2017-04-04T03:05:43.461Z,1015.71
2017-04-04T03:06:43.444Z,1015.69
2017-04-04T03:07:43.423Z,1015.72
2017-04-04T03:08:43.404Z,1015.7
2017-04-04T03:09:43.384Z,1015.69
2017-04-04T03:10:43.369Z,1015.64
2017-04-04T03:11:43.348Z,1015.68
2017-04-04T03:12:43.329Z,1015.7
2017-04-04T03:13:43.311Z,1015.68
2017-04-04T03:14:43.291Z,1015.66
2017-04-04T03:15:43.273Z,1015.65
2017-04-04T03:16:43.252Z,1015.68
2017-04-04T03:17:43.235Z,1015.67
2017-04-04T03:18:43.216Z,1015.67
2017-04-04T03:19:43.196Z,1015.6
2017-04-04T03:20:43.178Z,1015.66
2017-04-04T03:21:43.159Z,1015.65
2017-04-04T03:22:43.138Z,1015.59
2017-04-04T03:23:43.120Z,1015.62
2017-04-04T03:24:43.152Z,1015.66
2017-04-04T03:25:43.085Z,1015.6
2017-04-04T03:26:43.062Z,1015.63
2017-04-04T03:27:43.043Z,1015.61
2017-04-04T03:28:43.026Z,1015.61
2017-04-04T03:29:43.005Z,1015.58
2017-04-04T03:30:42.986Z,1015.53
2017-04-04T03:31:42.969Z,1015.53
2017-04-04T03:32:42.949Z,1015.57
2017-04-04T03:33:42.928Z,1015.54
2017-04-04T03:34:42.912Z,1015.5
2017-04-04T03:35:42.891Z,1015.49
2017-04-04T03:36:42.873Z,1015.54
2017-04-04T03:37:42.854Z,1015.52
2017-04-04T03:38:42.835Z,1015.48
2017-04-04T03:39:42.817Z,1015.49
2017-04-04T03:40:42.796Z,1015.49
2017-04-04T03:41:42.776Z,1015.5
2017-04-04T03:42:42.757Z,1015.52
2017-04-04T03:43:42.743Z,1015.48
2017-04-04T03:44:42.720Z,1015.5
2017-04-04T03:45:42.701Z,1015.46
2017-04-04T03:46:42.684Z,1015.5
2017-04-04T03:47:42.664Z,1015.48
2017-04-04T03:48:42.644Z,1015.5
2017-04-04T03:49:42.623Z,1015.49
2017-04-04T03:50:42.605Z,1015.5
2017-04-04T03:51:42.587Z,1015.54
2017-04-04T03:52:42.568Z,1015.53
2017-04-04T03:53:42.550Z,1015.56
2017-04-04T03:54:42.529Z,1015.56
2017-04-04T03:55:42.510Z,1015.57
2017-04-04T03:56:42.490Z,1015.56
2017-04-04T03:57:42.469Z,1015.56
2017-04-04T03:58:42.451Z,1015.55
2017-04-04T03:59:42.432Z,1015.55
2017-04-04T04:00:42.413Z,1015.58
2017-04-04T04:01:42.393Z,1015.59
2017-04-04T04:02:42.374Z,1015.6
2017-04-04T04:03:42.355Z,1015.58
2017-04-04T04:04:42.337Z,1015.55
2017-04-04T04:05:42.317Z,1015.54
2017-04-04T04:06:42.300Z,1015.5
2017-04-04T04:07:42.278Z,1015.53
2017-04-04T04:08:42.260Z,1015.53
2017-04-04T04:09:42.245Z,1015.56
2017-04-04T04:10:42.221Z,1015.55
2017-04-04T04:11:42.208Z,1015.56
2017-04-04T04:12:42.182Z,1015.56
2017-04-04T04:13:42.161Z,1015.53
2017-04-04T04:14:42.146Z,1015.58
2017-04-04T04:15:42.128Z,1015.57
2017-04-04T04:16:42.106Z,1015.53
2017-04-04T04:17:42.087Z,1015.53
2017-04-04T04:18:42.066Z,1015.55
2017-04-04T04:19:42.047Z,1015.57
2017-04-04T04:20:42.027Z,1015.54
2017-04-04T04:21:42.008Z,1015.56
2017-04-04T04:22:41.988Z,1015.55
2017-04-04T04:23:41.972Z,1015.59
2017-04-04T04:24:41.953Z,1015.59
2017-04-04T04:25:41.929Z,1015.53
2017-04-04T04:26:41.911Z,1015.56
2017-04-04T04:27:41.894Z,1015.61
2017-04-04T04:28:41.872Z,1015.6
2017-04-04T04:29:41.853Z,1015.6
2017-04-04T04:30:41.834Z,1015.59
2017-04-04T04:31:41.814Z,1015.55
2017-04-04T04:32:41.799Z,1015.56
2017-04-04T04:33:41.777Z,1015.56
2017-04-04T04:34:41.757Z,1015.58
2017-04-04T04:35:41.778Z,1015.63
2017-04-04T04:36:41.719Z,1015.63
2017-04-04T04:37:41.698Z,1015.65
2017-04-04T04:38:41.680Z,1015.68
2017-04-04T04:39:41.667Z,1015.67
2017-04-04T04:40:41.643Z,1015.69
2017-04-04T04:41:41.624Z,1015.67
2017-04-04T04:42:41.602Z,1015.68
2017-04-04T04:43:41.582Z,1015.71
2017-04-04T04:44:41.562Z,1015.7
2017-04-04T04:45:41.543Z,1015.69
2017-04-04T04:46:41.725Z,1015.68
2017-04-04T04:47:41.503Z,1015.71
2017-04-04T04:48:41.485Z,1015.71
2017-04-04T04:49:41.465Z,1015.7
2017-04-04T04:50:41.446Z,1015.71
2017-04-04T04:51:41.427Z,1015.68
2017-04-04T04:52:41.408Z,1015.68
2017-04-04T04:53:41.386Z,1015.69
2017-04-04T04:54:41.370Z,1015.68
2017-04-04T04:55:41.348Z,1015.71
2017-04-04T04:56:41.329Z,1015.66
2017-04-04T04:57:41.307Z,1015.71
2017-04-04T04:58:41.289Z,1015.63
2017-04-04T04:59:41.271Z,1015.65
2017-04-04T05:00:41.261Z,1015.65
2017-04-04T05:01:41.234Z,1015.64
2017-04-04T05:02:41.239Z,1015.65
2017-04-04T05:03:41.194Z,1015.66
2017-04-04T05:04:41.171Z,1015.63
2017-04-04T05:05:41.152Z,1015.66
2017-04-04T05:06:41.133Z,1015.65
2017-04-04T05:07:41.112Z,1015.63
2017-04-04T05:08:41.093Z,1015.64
2017-04-04T05:09:41.073Z,1015.69
2017-04-04T05:10:41.054Z,1015.71
2017-04-04T05:11:41.038Z,1015.75
2017-04-04T05:12:41.015Z,1015.7
2017-04-04T05:13:40.995Z,1015.77
2017-04-04T05:14:40.976Z,1015.73
2017-04-04T05:15:40.956Z,1015.72
2017-04-04T05:16:40.937Z,1015.74
2017-04-04T05:17:40.916Z,1015.68
2017-04-04T05:18:40.897Z,1015.7
2017-04-04T05:19:40.878Z,1015.77
2017-04-04T05:20:40.858Z,1015.75
2017-04-04T05:21:40.840Z,1015.78
2017-04-04T05:22:40.818Z,1015.8
2017-04-04T05:23:40.797Z,1015.74
2017-04-04T05:24:40.779Z,1015.73
2017-04-04T05:25:40.761Z,1015.76
2017-04-04T05:26:40.738Z,1015.78
2017-04-04T05:27:40.721Z,1015.78
2017-04-04T05:28:40.701Z,1015.8
2017-04-04T05:29:40.682Z,1015.79
2017-04-04T05:30:40.661Z,1015.83
2017-04-04T05:31:40.642Z,1015.87
2017-04-04T05:32:40.622Z,1015.88
2017-04-04T05:33:40.603Z,1015.87
2017-04-04T05:34:40.585Z,1015.92
2017-04-04T05:35:40.568Z,1015.94
2017-04-04T05:36:40.545Z,1015.91
2017-04-04T05:37:40.525Z,1015.89
2017-04-04T05:38:40.504Z,1015.88
2017-04-04T05:39:40.485Z,1015.92
2017-04-04T05:40:40.467Z,1015.91
2017-04-04T05:41:40.444Z,1015.9
2017-04-04T05:42:40.437Z,1015.91
2017-04-04T05:43:40.408Z,1015.89
2017-04-04T05:44:40.387Z,1015.85
2017-04-04T05:45:40.368Z,1015.87
2017-04-04T05:46:40.348Z,1015.88
2017-04-04T05:47:40.330Z,1015.84
2017-04-04T05:48:40.310Z,1015.88
2017-04-04T05:49:40.292Z,1015.92
2017-04-04T05:50:40.271Z,1015.94
2017-04-04T05:51:40.254Z,1015.92
2017-04-04T05:52:40.233Z,1015.9
2017-04-04T05:53:40.214Z,1015.95
2017-04-04T05:54:40.196Z,1015.93
2017-04-04T05:55:40.175Z,1015.93
2017-04-04T05:56:40.155Z,1015.93
2017-04-04T05:57:40.138Z,1015.91
2017-04-04T05:58:40.118Z,1015.93
2017-04-04T05:59:40.099Z,1015.92
2017-04-04T06:00:40.081Z,1015.91
2017-04-04T06:01:40.061Z,1015.94
2017-04-04T06:02:40.040Z,1015.98
2017-04-04T06:03:40.023Z,1015.96
2017-04-04T06:04:40.003Z,1015.96
2017-04-04T06:05:40.003Z,1015.94
2017-04-04T06:06:39.965Z,1015.95
2017-04-04T06:07:39.947Z,1015.95
2017-04-04T06:08:39.928Z,1015.89
2017-04-04T06:09:39.912Z,1015.94
2017-04-04T06:10:39.891Z,1015.9
2017-04-04T06:11:39.877Z,1015.92
2017-04-04T06:12:39.855Z,1015.89
2017-04-04T06:13:39.835Z,1015.92
2017-04-04T06:14:39.815Z,1015.9
2017-04-04T06:15:39.797Z,1015.92
2017-04-04T06:16:39.777Z,1015.91
2017-04-04T06:17:39.756Z,1015.91
2017-04-04T06:18:39.738Z,1015.96
2017-04-04T06:19:39.721Z,1015.97
2017-04-04T06:20:39.703Z,1015.95
2017-04-04T06:21:39.682Z,1015.96
2017-04-04T06:22:39.664Z,1015.96
2017-04-04T06:23:39.644Z,1015.94
2017-04-04T06:24:39.677Z,1015.97
2017-04-04T06:25:39.606Z,1015.96
2017-04-04T06:26:39.587Z,1015.97
2017-04-04T06:27:39.573Z,1015.95
2017-04-04T06:28:39.550Z,1015.98
2017-04-04T06:29:39.534Z,1015.96
2017-04-04T06:30:39.515Z,1015.98
2017-04-04T06:31:39.495Z,1016.01
2017-04-04T06:32:39.480Z,1016.01
2017-04-04T06:33:39.456Z,1016.02
2017-04-04T06:34:39.440Z,1016.03
2017-04-04T06:35:39.423Z,1016
2017-04-04T06:36:39.404Z,1016
2017-04-04T06:37:39.385Z,1016.02
2017-04-04T06:38:39.368Z,1016.06
2017-04-04T06:39:39.346Z,1016
2017-04-04T06:40:39.327Z,1016
2017-04-04T06:41:39.310Z,1016.01
2017-04-04T06:42:39.293Z,1015.95
2017-04-04T06:43:39.279Z,1015.98
2017-04-04T06:44:39.254Z,1015.97
2017-04-04T06:45:39.237Z,1015.99
2017-04-04T06:46:39.421Z,1016
2017-04-04T06:47:39.200Z,1016.01
2017-04-04T06:48:39.183Z,1016.01
2017-04-04T06:49:39.170Z,1015.99
2017-04-04T06:50:39.146Z,1016.05
2017-04-04T06:51:39.130Z,1016.04
2017-04-04T06:52:39.110Z,1016.06
2017-04-04T06:53:39.091Z,1016.06
2017-04-04T06:54:39.073Z,1016.1
2017-04-04T06:55:39.057Z,1016.14
2017-04-04T06:56:39.037Z,1016.09
2017-04-04T06:57:39.019Z,1016.11
2017-04-04T06:58:39.002Z,1016.09
2017-04-04T06:59:38.983Z,1016.12
2017-04-04T07:00:38.967Z,1016.11
2017-04-04T07:01:38.952Z,1016.06
2017-04-04T07:02:38.929Z,1016.06
2017-04-04T07:03:38.913Z,1016.05
2017-04-04T07:04:38.895Z,1016.09
2017-04-04T07:05:38.876Z,1016.11
2017-04-04T07:06:38.860Z,1016.1
2017-04-04T07:07:38.842Z,1016.11
2017-04-04T07:08:38.824Z,1016.12
2017-04-04T07:09:38.806Z,1016.13
2017-04-04T07:10:38.789Z,1016.11
2017-04-04T07:11:38.770Z,1016.15
2017-04-04T07:12:38.753Z,1016.15
2017-04-04T07:13:38.736Z,1016.1
2017-04-04T07:14:38.720Z,1016.09
2017-04-04T07:15:38.702Z,1016.1
2017-04-04T07:16:38.685Z,1016.14
2017-04-04T07:17:38.666Z,1016.09
2017-04-04T07:18:38.649Z,1016.09
2017-04-04T07:19:38.633Z,1016.07
2017-04-04T07:20:38.615Z,1016.08
2017-04-04T07:21:38.600Z,1016.12
2017-04-04T07:22:38.626Z,1016.13
2017-04-04T07:23:38.567Z,1016.13
2017-04-04T07:24:38.546Z,1016.11
2017-04-04T07:25:38.529Z,1016.14
2017-04-04T07:26:38.515Z,1016.15
2017-04-04T07:27:38.497Z,1016.17
2017-04-04T07:28:38.480Z,1016.15
2017-04-04T07:29:38.463Z,1016.11
2017-04-04T07:30:38.446Z,1016.13
2017-04-04T07:31:38.434Z,1016.15
2017-04-04T07:32:38.414Z,1016.16
2017-04-04T07:33:38.396Z,1016.19
2017-04-04T07:34:38.379Z,1016.21
2017-04-04T07:35:38.364Z,1016.25
2017-04-04T07:36:38.345Z,1016.22
2017-04-04T07:37:38.372Z,1016.26
2017-04-04T07:38:38.315Z,1016.26
2017-04-04T07:39:38.296Z,1016.24
2017-04-04T07:40:38.280Z,1016.29
2017-04-04T07:41:38.264Z,1016.32
2017-04-04T07:42:38.249Z,1016.31
2017-04-04T07:43:38.235Z,1016.36
2017-04-04T07:44:38.216Z,1016.3
2017-04-04T07:45:38.198Z,1016.35
2017-04-04T07:46:38.183Z,1016.34
2017-04-04T07:47:38.167Z,1016.34
2017-04-04T07:48:38.162Z,1016.35
2017-04-04T07:49:38.136Z,1016.34
2017-04-04T07:50:38.121Z,1016.31
2017-04-04T07:51:38.107Z,1016.33
2017-04-04T07:52:38.088Z,1016.35
2017-04-04T07:53:38.072Z,1016.36
2017-04-04T07:54:38.056Z,1016.39
2017-04-04T07:55:38.041Z,1016.36
2017-04-04T07:56:38.026Z,1016.37
2017-04-04T07:57:38.008Z,1016.34
2017-04-04T07:58:37.993Z,1016.37
2017-04-04T07:59:37.979Z,1016.33
2017-04-04T08:00:37.961Z,1016.33
2017-04-04T08:01:37.996Z,1016.34
2017-04-04T08:02:37.932Z,1016.37
2017-04-04T08:03:37.952Z,1016.35
2017-04-04T08:04:37.900Z,1016.31
2017-04-04T08:05:37.888Z,1016.36
2017-04-04T08:06:37.873Z,1016.3
2017-04-04T08:07:37.855Z,1016.37
2017-04-04T08:08:37.843Z,1016.39
2017-04-04T08:09:37.825Z,1016.36
2017-04-04T08:10:37.812Z,1016.39
2017-04-04T08:11:37.794Z,1016.37
2017-04-04T08:12:37.779Z,1016.33
2017-04-04T08:13:37.769Z,1016.4
2017-04-04T08:14:37.751Z,1016.44
2017-04-04T08:15:37.735Z,1016.49
2017-04-04T08:16:37.720Z,1016.53
2017-04-04T08:17:37.708Z,1016.55
2017-04-04T08:18:37.695Z,1016.66
2017-04-04T08:19:37.679Z,1016.66
2017-04-04T08:20:37.669Z,1016.67
2017-04-04T08:21:37.658Z,1016.71
2017-04-04T08:22:37.641Z,1016.7
2017-04-04T08:23:37.632Z,1016.69
2017-04-04T08:24:37.634Z,1016.74
2017-04-04T08:25:37.609Z,1016.79
2017-04-04T08:26:37.600Z,1016.85
2017-04-04T08:27:37.593Z,1016.84
2017-04-04T08:28:37.581Z,1016.89
2017-04-04T08:29:37.570Z,1016.94
2017-04-04T08:30:37.560Z,1016.92
2017-04-04T08:31:37.553Z,1016.96
2017-04-04T08:32:37.545Z,1016.95
2017-04-04T08:33:37.544Z,1016.89
2017-04-04T08:34:37.531Z,1016.87
2017-04-04T08:35:37.524Z,1016.88
2017-04-04T08:36:37.515Z,1016.84
2017-04-04T08:37:37.509Z,1016.87
2017-04-04T08:38:37.504Z,1016.83
2017-04-04T08:39:37.497Z,1016.84
2017-04-04T08:40:37.489Z,1016.78
2017-04-04T08:41:37.484Z,1016.76
2017-04-04T08:42:37.478Z,1016.85
2017-04-04T08:43:37.470Z,1016.79
2017-04-04T08:44:37.466Z,1016.83
2017-04-04T08:45:37.459Z,1016.8
2017-04-04T08:46:37.455Z,1016.87
2017-04-04T08:47:37.449Z,1016.91
2017-04-04T08:48:37.448Z,1016.89
2017-04-04T08:49:37.437Z,1016.89
2017-04-04T08:50:37.430Z,1016.92
2017-04-04T08:51:37.424Z,1016.92
2017-04-04T08:52:37.420Z,1016.89
2017-04-04T08:53:37.413Z,1016.81
2017-04-04T08:54:37.406Z,1016.87
2017-04-04T08:55:37.402Z,1016.87
2017-04-04T08:56:37.393Z,1016.86
2017-04-04T08:57:37.391Z,1016.94
2017-04-04T08:58:37.393Z,1016.99
2017-04-04T08:59:37.378Z,1016.99
2017-04-04T09:00:37.373Z,1017.05
2017-04-04T09:01:37.368Z,1017
2017-04-04T09:02:37.382Z,1016.9
2017-04-04T09:03:37.363Z,1016.92
2017-04-04T09:04:37.358Z,1016.91
2017-04-04T09:05:37.345Z,1016.92
2017-04-04T09:06:37.340Z,1016.89
2017-04-04T09:07:37.340Z,1016.84
2017-04-04T09:08:37.333Z,1016.9
2017-04-04T09:09:37.327Z,1016.93
2017-04-04T09:10:37.321Z,1016.88
2017-04-04T09:11:37.315Z,1016.85
2017-04-04T09:12:37.312Z,1016.89
2017-04-04T09:13:37.304Z,1016.93
2017-04-04T09:14:37.300Z,1016.92
2017-04-04T09:15:37.297Z,1016.89
2017-04-04T09:16:37.291Z,1016.9
2017-04-04T09:17:37.286Z,1016.92
2017-04-04T09:18:37.285Z,1016.88
2017-04-04T09:19:37.275Z,1016.88
2017-04-04T09:20:37.274Z,1016.87
2017-04-04T09:21:37.264Z,1016.8
2017-04-04T09:22:37.260Z,1016.76
2017-04-04T09:23:37.256Z,1016.81
2017-04-04T09:24:37.249Z,1016.84
2017-04-04T09:25:37.243Z,1016.83
2017-04-04T09:26:37.240Z,1016.89
2017-04-04T09:27:37.233Z,1016.94
2017-04-04T09:28:37.228Z,1016.93
2017-04-04T09:29:37.222Z,1016.85
2017-04-04T09:30:37.216Z,1016.84
2017-04-04T09:31:37.212Z,1016.88
2017-04-04T09:32:37.207Z,1016.92
2017-04-04T09:33:37.203Z,1016.92
2017-04-04T09:34:37.195Z,1016.89
2017-04-04T09:35:37.188Z,1016.86
2017-04-04T09:36:37.185Z,1016.85
2017-04-04T09:37:37.185Z,1016.8
2017-04-04T09:38:37.177Z,1016.73
2017-04-04T09:39:37.169Z,1016.7
2017-04-04T09:40:37.162Z,1016.66
2017-04-04T09:41:37.159Z,1016.64
2017-04-04T09:42:37.152Z,1016.62
2017-04-04T09:43:37.145Z,1016.58
2017-04-04T09:44:37.141Z,1016.59
2017-04-04T09:45:37.137Z,1016.59
2017-04-04T09:46:37.129Z,1016.63
2017-04-04T09:47:37.123Z,1016.63
2017-04-04T09:48:37.123Z,1016.63
2017-04-04T09:49:37.381Z,1016.62
2017-04-04T09:50:37.108Z,1016.63
2017-04-04T09:51:37.105Z,1016.63
2017-04-04T09:52:37.105Z,1016.66
2017-04-04T09:53:37.096Z,1016.62
2017-04-04T09:54:37.083Z,1016.59
2017-04-04T09:55:37.194Z,1016.55
2017-04-04T09:56:37.080Z,1016.55
2017-04-04T09:57:37.067Z,1016.63
2017-04-04T09:58:37.069Z,1016.59
2017-04-04T09:59:37.109Z,1016.59
2017-04-04T10:00:37.115Z,1016.56
2017-04-04T10:01:37.063Z,1016.58
2017-04-04T10:02:37.038Z,1016.61
2017-04-04T10:03:37.028Z,1016.55
2017-04-04T10:04:37.041Z,1016.55
2017-04-04T10:05:37.035Z,1016.55
2017-04-04T10:06:37.016Z,1016.59
2017-04-04T10:07:37.007Z,1016.54
2017-04-04T10:08:37.006Z,1016.55
2017-04-04T10:09:36.997Z,1016.53
2017-04-04T10:10:36.989Z,1016.54
2017-04-04T10:11:36.984Z,1016.52
2017-04-04T10:12:37.003Z,1016.5
2017-04-04T10:13:36.975Z,1016.53
2017-04-04T10:14:36.968Z,1016.57
2017-04-04T10:15:36.962Z,1016.54
2017-04-04T10:16:37.013Z,1016.54
2017-04-04T10:17:36.951Z,1016.55
2017-04-04T10:18:36.953Z,1016.62
2017-04-04T10:19:36.943Z,1016.57
2017-04-04T10:20:36.940Z,1016.52
2017-04-04T10:21:36.952Z,1016.48
2017-04-04T10:22:36.930Z,1016.49
2017-04-04T10:23:37.023Z,1016.52
2017-04-04T10:24:36.923Z,1016.52
2017-04-04T10:25:36.912Z,1016.54
2017-04-04T10:26:36.910Z,1016.51
2017-04-04T10:27:36.904Z,1016.49
2017-04-04T10:28:36.903Z,1016.47
2017-04-04T10:29:36.893Z,1016.52
2017-04-04T10:30:36.889Z,1016.49
2017-04-04T10:31:36.882Z,1016.52
2017-04-04T10:32:36.897Z,1016.55
2017-04-04T10:33:36.938Z,1016.56
2017-04-04T10:34:36.874Z,1016.58
2017-04-04T10:35:36.868Z,1016.58
2017-04-04T10:36:36.876Z,1016.53
2017-04-04T10:37:36.858Z,1016.51
2017-04-04T10:38:37.102Z,1016.48
2017-04-04T10:39:36.851Z,1016.52
2017-04-04T10:40:36.846Z,1016.49
2017-04-04T10:41:36.843Z,1016.46
2017-04-04T10:42:36.838Z,1016.46
2017-04-04T10:43:36.835Z,1016.44
2017-04-04T10:44:36.829Z,1016.43
2017-04-04T10:45:36.821Z,1016.44
2017-04-04T10:46:36.817Z,1016.46
2017-04-04T10:47:36.813Z,1016.44
2017-04-04T10:48:36.812Z,1016.42
2017-04-04T10:49:36.809Z,1016.39
2017-04-04T10:50:36.805Z,1016.41
2017-04-04T10:51:36.796Z,1016.38
2017-04-04T10:52:36.790Z,1016.41
2017-04-04T10:53:36.789Z,1016.39
2017-04-04T10:54:36.794Z,1016.34
2017-04-04T10:55:36.784Z,1016.31
2017-04-04T10:56:36.776Z,1015.94
2017-04-04T10:57:36.782Z,1015.72
2017-04-04T10:58:36.782Z,1015.69
2017-04-04T10:59:36.770Z,1015.91
2017-04-04T11:00:36.762Z,1016.05
2017-04-04T11:01:36.774Z,1016.01
2017-04-04T11:02:36.763Z,1015.95
2017-04-04T11:03:36.756Z,1015.89
2017-04-04T11:04:36.754Z,1015.88
2017-04-04T11:05:36.753Z,1015.94
2017-04-04T11:06:36.754Z,1015.99
2017-04-04T11:07:36.751Z,1015.94
2017-04-04T11:08:36.755Z,1016.07
2017-04-04T11:09:36.744Z,1016.13
2017-04-04T11:10:36.753Z,1016.19
2017-04-04T11:11:36.746Z,1016.31
2017-04-04T11:12:36.753Z,1016.39
2017-04-04T11:13:36.739Z,1016.5
2017-04-04T11:14:36.747Z,1016.5
2017-04-04T11:15:36.742Z,1016.5
2017-04-04T11:16:36.945Z,1016.51
2017-04-04T11:17:36.739Z,1016.53
2017-04-04T11:18:36.744Z,1016.45
2017-04-04T11:19:36.763Z,1016.45
2017-04-04T11:20:36.743Z,1016.44
2017-04-04T11:21:36.746Z,1016.44
2017-04-04T11:22:36.747Z,1016.44
2017-04-04T11:23:36.741Z,1016.39
2017-04-04T11:24:36.751Z,1016.39
2017-04-04T11:25:36.751Z,1016.35
2017-04-04T11:26:36.744Z,1016.33
2017-04-04T11:27:36.761Z,1016.3
2017-04-04T11:28:36.774Z,1016.3
2017-04-04T11:29:36.755Z,1016.34
2017-04-04T11:30:36.751Z,1016.33
2017-04-04T11:31:36.753Z,1016.36
2017-04-04T11:32:36.750Z,1016.38
2017-04-04T11:33:36.750Z,1016.39
2017-04-04T11:34:36.754Z,1016.35
2017-04-04T11:35:36.765Z,1016.36
2017-04-04T11:36:36.755Z,1016.39
2017-04-04T11:37:36.759Z,1016.38
2017-04-04T11:38:36.763Z,1016.41
2017-04-04T11:39:36.762Z,1016.37
2017-04-04T11:40:36.762Z,1016.33
2017-04-04T11:41:36.767Z,1016.36
2017-04-04T11:42:36.784Z,1016.36
2017-04-04T11:43:36.770Z,1016.4
2017-04-04T11:44:36.774Z,1016.37
2017-04-04T11:45:36.774Z,1016.37
2017-04-04T11:46:36.780Z,1016.33
2017-04-04T11:47:36.782Z,1016.37
2017-04-04T11:48:36.778Z,1016.31
2017-04-04T11:49:36.787Z,1016.37
2017-04-04T11:50:36.785Z,1016.34
2017-04-04T11:51:36.809Z,1016.38
2017-04-04T11:52:36.803Z,1016.35
2017-04-04T11:53:36.819Z,1016.35
2017-04-04T11:54:36.794Z,1016.35
2017-04-04T11:55:36.805Z,1016.29
2017-04-04T11:56:36.809Z,1016.3
2017-04-04T11:57:36.805Z,1016.27
2017-04-04T11:58:36.834Z,1016.24
2017-04-04T11:59:36.826Z,1016.28
2017-04-04T12:00:36.829Z,1016.23
2017-04-04T12:01:36.816Z,1016.24
2017-04-04T12:02:36.824Z,1016.22
2017-04-04T12:03:36.824Z,1016.24
2017-04-04T12:04:36.825Z,1016.22
2017-04-04T12:05:36.826Z,1016.26
2017-04-04T12:06:36.831Z,1016.22
2017-04-04T12:07:36.855Z,1016.27
2017-04-04T12:08:36.858Z,1016.27